Wilson Algeciras — 9HA2471 — position and weather

sailwx.info

Track history (hours):
 
Tides and Currents Weather Stations Pressure Air Temp Water Temp Dewpoint Dewpoint Depression Visibility Wind Speed Wind Dir Waves Ship Positions

Wilson Algeciras

Last reported at 2015-Mar-06 00:27 UTC. Time now 2015-Mar-06 20:09 UTC.
Position N 55°42' E 006°45'.

Length 88 m; draft 5.3 m.

Type: Cargo ship. MMSI: 248689000.

Date/timePositionNaut miles runAvg speedWind from/ knotsBaromVisibWave heightAir tempDewpointWater temp
2015-Mar-06 00:27N 55°42' E 006°45'4 4.8
2015-Mar-05 23:33N 55°38' E 006°47'8 8.0
2015-Mar-05 22:33N 55°30' E 006°52'8 8.3
2015-Mar-05 21:33N 55°23' E 006°56'9 9.2
2015-Mar-05 20:33N 55°14' E 007°01'3 3.5
2015-Mar-05 19:33N 55°10' E 007°02'10 9.6
2015-Mar-05 18:33N 55°02' E 007°09'8 7.8
2015-Mar-05 17:33N 54°54' E 007°14'10 9.8
2015-Mar-05 16:34N 54°45' E 007°19'8 8.4
2015-Mar-05 15:33N 54°37' E 007°23'10 9.6
2015-Mar-05 14:33N 54°28' E 007°28'10 9.6
2015-Mar-05 13:33N 54°19' E 007°34'9 9.3
2015-Mar-05 12:33N 54°11' E 007°43'9 8.7
2015-Mar-05 11:33N 54°05' E 007°54'8 8.2
2015-Mar-05 10:33N 54°02' E 008°06'8 7.7
2015-Mar-05 09:33N 54°00' E 008°20'7 7.1
2015-Mar-05 08:33N 53°58' E 008°31'9 8.8
2015-Mar-05 07:33N 53°53' E 008°43'1111.2
2015-Mar-05 06:33N 53°52' E 009°02'1111.4
2015-Mar-05 05:33N 53°50' E 009°21'1211.9
2015-Mar-05 04:33N 53°40' E 009°31'10 9.9
2015-Mar-05 03:33N 53°34' E 009°44'8 7.9
2015-Mar-05 02:33N 53°31' E 009°56'1 1.1
2015-Mar-05 01:32N 53°30' E 009°58'0 0.0
2015-Mar-05 00:32N 53°30' E 009°58'0 0.0
2015-Mar-04 23:32N 53°30' E 009°58'0 0.0
2015-Mar-04 22:32N 53°30' E 009°58'0 0.0
2015-Mar-04 21:32N 53°30' E 009°58'0 0.0
2015-Mar-04 20:32N 53°30' E 009°58'0 0.0
2015-Mar-04 19:32N 53°30' E 009°58'0 0.0
2015-Mar-04 18:32N 53°30' E 009°58'0 0.0
2015-Mar-04 17:32N 53°30' E 009°58'0 0.0
2015-Mar-04 16:32N 53°30' E 009°58'0 0.0
2015-Mar-04 15:33N 53°30' E 009°58'0 0.0
2015-Mar-04 14:33N 53°30' E 009°58'0 0.0
2015-Mar-04 13:33N 53°30' E 009°58'0 0.0
2015-Mar-04 12:33N 53°30' E 009°58'4 4.1
2015-Mar-04 11:34N 53°33' E 009°52'1111.2
2015-Mar-04 10:33N 53°36' E 009°34'1111.3
2015-Mar-04 09:33N 53°46' E 009°24'1110.6
2015-Mar-04 08:33N 53°53' E 009°10'9 9.5
2015-Mar-04 07:33N 53°50' E 008°54'8 7.7
2015-Mar-04 06:33N 53°53' E 008°42'7 7.5
2015-Mar-04 05:33N 53°58' E 008°33'9 8.8
2015-Mar-04 04:33N 53°59' E 008°18'1010.2
2015-Mar-04 03:33N 53°58' E 008°00'10 9.9
2015-Mar-04 02:33N 53°56' E 007°44'7 7.0
2015-Mar-04 01:34N 53°54' E 007°33'7 6.6
2015-Mar-04 00:33N 53°52' E 007°22'7 6.6
2015-Mar-03 23:33N 53°51' E 007°11'7 6.8
2015-Mar-03 22:32N 53°49' E 006°60'23 7.4
2015-Mar-03 19:26N 53°43' E 006°22'6 7.1
2015-Mar-03 18:33N 53°37' E 006°25'7 6.9
2015-Mar-03 17:34N 53°36' E 006°36'8 7.6
2015-Mar-03 16:33N 53°31' E 006°46'10 9.8
2015-Mar-03 15:34N 53°24' E 006°57'10 9.6
2015-Mar-03 14:33N 53°20' E 007°12'8 8.5
2015-Mar-03 13:33N 53°15' E 007°24'7 7.2
2015-Mar-03 12:33N 53°08' E 007°22'2 1.4
2015-Mar-03 11:11N 53°06' E 007°22'1 0.0
2015-Mar-02 18:19N 53°05' E 007°23'0 0.0
2015-Mar-02 16:31N 53°05' E 007°23'3 0.1
2015-Mar-01 20:05N 53°08' E 007°22'11 6.2
2015-Mar-01 18:14N 53°19' E 007°18'7 9.9
2015-Mar-01 17:34N 53°20' E 007°06'3 3.0
2015-Mar-01 16:33N 53°19' E 007°01'0 0.0
2015-Mar-01 15:27N 53°19' E 007°01'0 0.0
2015-Mar-01 14:30N 53°19' E 007°01'0 0.1
2015-Mar-01 13:33N 53°19' E 007°01'0 0.1
2015-Mar-01 12:30N 53°19' E 007°01'0 0.0
2015-Mar-01 11:33N 53°19' E 007°01'3 3.5
2015-Mar-01 10:33N 53°22' E 006°58'8 8.0
2015-Mar-01 09:33N 53°29' E 006°50'9 8.9
2015-Mar-01 08:33N 53°34' E 006°39'9 8.9
2015-Mar-01 07:31N 53°37' E 006°24'32 5.3
2015-Mar-01 01:22N 53°56' E 007°08'5 6.5
2015-Mar-01 00:33N 53°57' E 007°16'7 6.7
2015-Feb-28 23:34N 53°59' E 007°27'7 7.0
2015-Feb-28 22:33N 54°01' E 007°39'8 8.0
2015-Feb-28 21:33N 54°01' E 007°53'8 7.9
2015-Feb-28 20:33N 54°01' E 008°06'8 8.0
2015-Feb-28 19:33N 54°00' E 008°19'9 8.6
2015-Feb-28 18:33N 53°58' E 008°34'7 6.8
2015-Feb-28 17:33N 53°54' E 008°42'7 7.3
2015-Feb-28 16:33N 53°51' E 008°53'9 9.4
2015-Feb-28 15:33N 53°53' E 009°08'0 0.1
2015-Feb-28 14:33N 53°54' E 009°09'6 5.8
2015-Feb-28 13:33N 53°58' E 009°15'8 8.1
2015-Feb-28 12:33N 54°06' E 009°20'4 3.7
2015-Feb-28 11:33N 54°09' E 009°22'8 6.3
2015-Feb-28 10:19N 54°12' E 009°34'6 7.8
2015-Feb-28 09:33N 54°17' E 009°39'8 7.7
2015-Feb-28 08:33N 54°22' E 009°50'7 7.4
2015-Feb-28 07:33N 54°22' E 010°03'3 2.6
2015-Feb-28 06:33N 54°22' E 010°07'2 1.7
2015-Feb-28 05:33N 54°22' E 010°10'6 5.8
2015-Feb-28 04:33N 54°27' E 010°14'9 9.1
2015-Feb-28 03:33N 54°32' E 010°27'9 9.1
2015-Feb-28 02:33N 54°35' E 010°43'9 9.4
2015-Feb-28 01:33N 54°36' E 010°59'10 9.7
2015-Feb-28 00:33N 54°35' E 011°15'9 9.2
2015-Feb-27 23:33N 54°31' E 011°30'9 9.3
2015-Feb-27 22:33N 54°28' E 011°45'9 9.1
2015-Feb-27 21:33N 54°27' E 012°00'9 8.6
2015-Feb-27 20:33N 54°32' E 012°12'11 9.7
2015-Feb-27 19:24N 54°40' E 012°24'8 9.7
2015-Feb-27 18:33N 54°45' E 012°36'9 9.3
2015-Feb-27 17:33N 54°49' E 012°51'8 8.0
2015-Feb-27 16:33N 54°47' E 013°04'1010.2
2015-Feb-27 15:33N 54°47' E 013°22'10 9.8
2015-Feb-27 14:33N 54°45' E 013°39'10 9.7
2015-Feb-27 13:33N 54°43' E 013°55'10 9.9
2015-Feb-27 12:33N 54°40' E 014°12'144 9.3
2015-Feb-26 21:08N 55°17' E 018°14'6 9.6
2015-Feb-26 20:33N 55°19' E 018°24'10 9.7
2015-Feb-26 19:30N 55°21' E 018°41'9 9.9
2015-Feb-26 18:33N 55°25' E 018°56'10 9.4
2015-Feb-26 17:31N 55°28' E 019°12'  
Track history (hours):
 
Tides and Currents Weather Stations Pressure Air Temp Water Temp Dewpoint Dewpoint Depression Visibility Wind Speed Wind Dir Waves Ship Positions

Wilson Algeciras

Last reported at 2015-Mar-06 00:27 UTC. Time now 2015-Mar-06 20:09 UTC.
Position N 55°42' E 006°45'.

Length 88 m; draft 5.3 m.

Type: Cargo ship. MMSI: 248689000.

Date/timePositionNaut miles runAvg speedWind from/ knotsBaromVisibWave heightAir tempDewpointWater temp
2015-Mar-06 00:27N 55°42' E 006°45'4 4.8
2015-Mar-05 23:33N 55°38' E 006°47'8 8.0
2015-Mar-05 22:33N 55°30' E 006°52'8 8.3
2015-Mar-05 21:33N 55°23' E 006°56'9 9.2
2015-Mar-05 20:33N 55°14' E 007°01'3 3.5
2015-Mar-05 19:33N 55°10' E 007°02'10 9.6
2015-Mar-05 18:33N 55°02' E 007°09'8 7.8
2015-Mar-05 17:33N 54°54' E 007°14'10 9.8
2015-Mar-05 16:34N 54°45' E 007°19'8 8.4
2015-Mar-05 15:33N 54°37' E 007°23'10 9.6
2015-Mar-05 14:33N 54°28' E 007°28'10 9.6
2015-Mar-05 13:33N 54°19' E 007°34'9 9.3
2015-Mar-05 12:33N 54°11' E 007°43'9 8.7
2015-Mar-05 11:33N 54°05' E 007°54'8 8.2
2015-Mar-05 10:33N 54°02' E 008°06'8 7.7
2015-Mar-05 09:33N 54°00' E 008°20'7 7.1
2015-Mar-05 08:33N 53°58' E 008°31'9 8.8
2015-Mar-05 07:33N 53°53' E 008°43'1111.2
2015-Mar-05 06:33N 53°52' E 009°02'1111.4
2015-Mar-05 05:33N 53°50' E 009°21'1211.9
2015-Mar-05 04:33N 53°40' E 009°31'10 9.9
2015-Mar-05 03:33N 53°34' E 009°44'8 7.9
2015-Mar-05 02:33N 53°31' E 009°56'1 1.1
2015-Mar-05 01:32N 53°30' E 009°58'0 0.0
2015-Mar-05 00:32N 53°30' E 009°58'0 0.0
2015-Mar-04 23:32N 53°30' E 009°58'0 0.0
2015-Mar-04 22:32N 53°30' E 009°58'0 0.0
2015-Mar-04 21:32N 53°30' E 009°58'0 0.0
2015-Mar-04 20:32N 53°30' E 009°58'0 0.0
2015-Mar-04 19:32N 53°30' E 009°58'0 0.0
2015-Mar-04 18:32N 53°30' E 009°58'0 0.0
2015-Mar-04 17:32N 53°30' E 009°58'0 0.0
2015-Mar-04 16:32N 53°30' E 009°58'0 0.0
2015-Mar-04 15:33N 53°30' E 009°58'0 0.0
2015-Mar-04 14:33N 53°30' E 009°58'0 0.0
2015-Mar-04 13:33N 53°30' E 009°58'0 0.0
2015-Mar-04 12:33N 53°30' E 009°58'4 4.1
2015-Mar-04 11:34N 53°33' E 009°52'1111.2
2015-Mar-04 10:33N 53°36' E 009°34'1111.3
2015-Mar-04 09:33N 53°46' E 009°24'1110.6
2015-Mar-04 08:33N 53°53' E 009°10'9 9.5
2015-Mar-04 07:33N 53°50' E 008°54'8 7.7
2015-Mar-04 06:33N 53°53' E 008°42'7 7.5
2015-Mar-04 05:33N 53°58' E 008°33'9 8.8
2015-Mar-04 04:33N 53°59' E 008°18'1010.2
2015-Mar-04 03:33N 53°58' E 008°00'10 9.9
2015-Mar-04 02:33N 53°56' E 007°44'7 7.0
2015-Mar-04 01:34N 53°54' E 007°33'7 6.6
2015-Mar-04 00:33N 53°52' E 007°22'7 6.6
2015-Mar-03 23:33N 53°51' E 007°11'7 6.8
2015-Mar-03 22:32N 53°49' E 006°60'23 7.4
2015-Mar-03 19:26N 53°43' E 006°22'6 7.1
2015-Mar-03 18:33N 53°37' E 006°25'7 6.9
2015-Mar-03 17:34N 53°36' E 006°36'8 7.6
2015-Mar-03 16:33N 53°31' E 006°46'10 9.8
2015-Mar-03 15:34N 53°24' E 006°57'10 9.6
2015-Mar-03 14:33N 53°20' E 007°12'8 8.5
2015-Mar-03 13:33N 53°15' E 007°24'7 7.2
2015-Mar-03 12:33N 53°08' E 007°22'2 1.4
2015-Mar-03 11:11N 53°06' E 007°22'1 0.0
2015-Mar-02 18:19N 53°05' E 007°23'0 0.0
2015-Mar-02 16:31N 53°05' E 007°23'3 0.1
2015-Mar-01 20:05N 53°08' E 007°22'11 6.2
2015-Mar-01 18:14N 53°19' E 007°18'7 9.9
2015-Mar-01 17:34N 53°20' E 007°06'3 3.0
2015-Mar-01 16:33N 53°19' E 007°01'0 0.0
2015-Mar-01 15:27N 53°19' E 007°01'0 0.0
2015-Mar-01 14:30N 53°19' E 007°01'0 0.1
2015-Mar-01 13:33N 53°19' E 007°01'0 0.1
2015-Mar-01 12:30N 53°19' E 007°01'0 0.0
2015-Mar-01 11:33N 53°19' E 007°01'3 3.5
2015-Mar-01 10:33N 53°22' E 006°58'8 8.0
2015-Mar-01 09:33N 53°29' E 006°50'9 8.9
2015-Mar-01 08:33N 53°34' E 006°39'9 8.9
2015-Mar-01 07:31N 53°37' E 006°24'32 5.3
2015-Mar-01 01:22N 53°56' E 007°08'5 6.5
2015-Mar-01 00:33N 53°57' E 007°16'7 6.7
2015-Feb-28 23:34N 53°59' E 007°27'7 7.0
2015-Feb-28 22:33N 54°01' E 007°39'8 8.0
2015-Feb-28 21:33N 54°01' E 007°53'8 7.9
2015-Feb-28 20:33N 54°01' E 008°06'8 8.0
2015-Feb-28 19:33N 54°00' E 008°19'9 8.6
2015-Feb-28 18:33N 53°58' E 008°34'7 6.8
2015-Feb-28 17:33N 53°54' E 008°42'7 7.3
2015-Feb-28 16:33N 53°51' E 008°53'9 9.4
2015-Feb-28 15:33N 53°53' E 009°08'0 0.1
2015-Feb-28 14:33N 53°54' E 009°09'6 5.8
2015-Feb-28 13:33N 53°58' E 009°15'8 8.1
2015-Feb-28 12:33N 54°06' E 009°20'4 3.7
2015-Feb-28 11:33N 54°09' E 009°22'8 6.3
2015-Feb-28 10:19N 54°12' E 009°34'6 7.8
2015-Feb-28 09:33N 54°17' E 009°39'8 7.7
2015-Feb-28 08:33N 54°22' E 009°50'7 7.4
2015-Feb-28 07:33N 54°22' E 010°03'3 2.6
2015-Feb-28 06:33N 54°22' E 010°07'2 1.7
2015-Feb-28 05:33N 54°22' E 010°10'6 5.8
2015-Feb-28 04:33N 54°27' E 010°14'9 9.1
2015-Feb-28 03:33N 54°32' E 010°27'9 9.1
2015-Feb-28 02:33N 54°35' E 010°43'9 9.4
2015-Feb-28 01:33N 54°36' E 010°59'10 9.7
2015-Feb-28 00:33N 54°35' E 011°15'9 9.2
2015-Feb-27 23:33N 54°31' E 011°30'9 9.3
2015-Feb-27 22:33N 54°28' E 011°45'9 9.1
2015-Feb-27 21:33N 54°27' E 012°00'9 8.6
2015-Feb-27 20:33N 54°32' E 012°12'11 9.7
2015-Feb-27 19:24N 54°40' E 012°24'8 9.7
2015-Feb-27 18:33N 54°45' E 012°36'9 9.3
2015-Feb-27 17:33N 54°49' E 012°51'8 8.0
2015-Feb-27 16:33N 54°47' E 013°04'1010.2
2015-Feb-27 15:33N 54°47' E 013°22'10 9.8
2015-Feb-27 14:33N 54°45' E 013°39'10 9.7
2015-Feb-27 13:33N 54°43' E 013°55'10 9.9
2015-Feb-27 12:33N 54°40' E 014°12'144 9.3
2015-Feb-26 21:08N 55°17' E 018°14'6 9.6
2015-Feb-26 20:33N 55°19' E 018°24'10 9.7
2015-Feb-26 19:30N 55°21' E 018°41'9 9.9
2015-Feb-26 18:33N 55°25' E 018°56'10 9.4
2015-Feb-26 17:31N 55°28' E 019°12'  

Dump ship's entire track history